Time;durP1;ratioP1;P1;durP2;ratioP2;P2;SDS_P1;SDS_P2;PMS_P1;PMS_P2;Temp;Humidity;BMP_temperature;BMP_pressure;BME280_temperature;BME280_humidity;BME280_pressure;Samples;Min_cycle;Max_cycle;Signal;HPM_P1;HPM_P2
2022/04/06 00:00:10;;;;;;;23.80;12.80;;;;;;;5.41;nan;100107.28;5014450;28;20033;-74
2022/04/06 00:02:38;;;;;;;27.00;13.48;;;;;;;5.40;nan;100103.88;5016653;28;20066;-73
2022/04/06 00:05:04;;;;;;;21.13;12.60;;;;;;;5.45;nan;100101.47;5016381;28;20033;-76
2022/04/06 00:07:30;;;;;;;22.88;12.15;;;;;;;5.46;nan;100097.88;5010697;28;20046;-75
2022/04/06 00:09:55;;;;;;;21.58;12.32;;;;;;;5.41;nan;100083.78;5011924;28;20667;-74
2022/04/06 00:12:21;;;;;;;19.50;12.40;;;;;;;5.47;nan;100096.03;5003665;28;20048;-73
2022/04/06 00:14:46;;;;;;;21.65;13.02;;;;;;;5.41;nan;100089.00;5019410;28;20483;-75
2022/04/06 00:17:13;;;;;;;24.83;13.30;;;;;;;5.47;nan;100091.63;5020125;28;20112;-74
2022/04/06 00:19:39;;;;;;;21.67;12.18;;;;;;;5.48;nan;100097.66;5007451;28;20036;-74
2022/04/06 00:22:05;;;;;;;20.73;12.05;;;;;;;5.45;nan;100095.44;5009412;28;20034;-74
2022/04/06 00:24:31;;;;;;;19.60;11.93;;;;;;;5.40;nan;100101.25;5009224;28;20041;-74
2022/04/06 00:26:56;;;;;;;22.17;12.30;;;;;;;5.32;nan;100091.81;5010913;28;20048;-74
2022/04/06 00:29:22;;;;;;;21.35;11.88;;;;;;;5.29;nan;100094.81;5010837;28;20045;-74
2022/04/06 00:31:47;;;;;;;21.98;12.18;;;;;;;5.26;nan;100089.97;5011172;28;20395;-73
2022/04/06 00:34:13;;;;;;;19.35;11.77;;;;;;;5.30;nan;100101.63;5009787;28;20037;-75
2022/04/06 00:36:38;;;;;;;18.98;11.73;;;;;;;5.35;nan;100113.31;5010570;28;20108;-73
2022/04/06 00:39:04;;;;;;;21.48;12.32;;;;;;;5.24;nan;100099.00;5026411;28;20124;-74
2022/04/06 00:41:30;;;;;;;23.52;12.80;;;;;;;5.22;nan;100107.06;5009115;28;20567;-74
2022/04/06 00:44:11;;;;;;;25.50;13.10;;;;;;;5.25;nan;100114.47;5011401;28;20041;-73
2022/04/06 00:46:37;;;;;;;18.15;11.63;;;;;;;5.24;nan;100118.09;5010702;28;20042;-73
2022/04/06 00:49:03;;;;;;;21.55;12.88;;;;;;;5.14;nan;100103.81;5010703;28;20034;-73
2022/04/06 00:51:28;;;;;;;19.40;11.90;;;;;;;5.14;nan;100111.63;5011541;28;20034;-74
2022/04/06 00:53:55;;;;;;;20.77;12.60;;;;;;;5.00;nan;100090.69;5008600;28;20034;-75
2022/04/06 00:56:21;;;;;;;22.88;13.30;;;;;;;4.91;nan;100073.63;5011074;28;20527;-74
2022/04/06 00:58:47;;;;;;;24.05;12.50;;;;;;;5.14;nan;100137.72;5010469;28;20067;-74
2022/04/06 01:01:13;;;;;;;21.58;11.95;;;;;;;4.99;nan;100119.63;5006917;28;20099;-75
2022/04/06 01:03:40;;;;;;;21.58;12.57;;;;;;;4.97;nan;100124.22;5010029;28;20037;-74
2022/04/06 01:06:07;;;;;;;24.52;11.70;;;;;;;4.91;nan;100133.63;5010704;28;20095;-74
2022/04/06 01:08:33;;;;;;;23.50;12.13;;;;;;;4.86;nan;100130.78;5010539;28;20095;-74
2022/04/06 01:10:59;;;;;;;24.15;12.57;;;;;;;4.74;nan;100107.06;5010737;28;20109;-74
2022/04/06 01:13:25;;;;;;;24.58;12.82;;;;;;;4.76;nan;100110.28;5010473;28;20037;-75
2022/04/06 01:15:50;;;;;;;21.65;12.60;;;;;;;4.81;nan;100105.31;5010045;28;20033;-74
2022/04/06 01:18:16;;;;;;;22.58;12.52;;;;;;;4.84;nan;100114.53;5010321;28;20121;-74
2022/04/06 01:20:41;;;;;;;22.33;12.15;;;;;;;4.82;nan;100113.94;5010671;28;20044;-74
2022/04/06 01:23:06;;;;;;;21.33;12.38;;;;;;;4.78;nan;100105.66;5010411;28;20137;-75
2022/04/06 01:25:35;;;;;;;23.67;12.82;;;;;;;4.76;nan;100107.66;5010012;28;20038;-74
2022/04/06 01:28:00;;;;;;;18.70;11.95;;;;;;;4.79;nan;100106.47;5010253;28;20046;-74
2022/04/06 01:30:26;;;;;;;24.08;12.90;;;;;;;4.78;nan;100104.88;5008436;28;20129;-75
2022/04/06 01:32:51;;;;;;;22.75;12.35;;;;;;;4.77;nan;100111.91;5010154;28;20033;-73
2022/04/06 01:35:17;;;;;;;28.20;12.65;;;;;;;4.77;nan;100119.72;5010025;28;20038;-74
2022/04/06 01:37:43;;;;;;;42.13;21.30;;;;;;;4.67;nan;100116.66;5024938;28;20558;-74
2022/04/06 01:40:08;;;;;;;30.77;16.80;;;;;;;4.65;nan;100129.88;5009662;28;20046;-73
2022/04/06 01:42:34;;;;;;;35.85;16.38;;;;;;;4.63;nan;100134.50;5006964;28;20066;-74
2022/04/06 01:45:00;;;;;;;29.75;15.32;;;;;;;4.62;nan;100132.91;5009722;28;20411;-74
2022/04/06 01:47:26;;;;;;;25.50;14.57;;;;;;;4.63;nan;100128.47;5010664;28;20073;-74
2022/04/06 01:52:35;;;;;;;27.67;14.88;;;;;;;4.59;nan;100137.66;5006529;28;20033;-74
2022/04/06 01:55:07;;;;;;;25.63;13.98;;;;;;;4.62;nan;100137.28;5010040;28;20022;-74
2022/04/06 01:57:34;;;;;;;28.00;14.02;;;;;;;4.54;nan;100137.44;5010145;28;20041;-74
2022/04/06 01:59:59;;;;;;;29.83;16.13;;;;;;;4.46;nan;100125.38;5009788;28;20030;-74
2022/04/06 02:02:30;;;;;;;33.75;16.75;;;;;;;4.55;nan;100141.66;5009756;28;20545;-74
2022/04/06 02:04:58;;;;;;;26.27;15.60;;;;;;;4.45;nan;100132.41;5009458;28;20100;-74
2022/04/06 02:07:23;;;;;;;32.65;15.70;;;;;;;4.52;nan;100148.06;5010103;28;20042;-73
2022/04/06 02:09:49;;;;;;;30.33;16.25;;;;;;;4.50;nan;100155.25;5009583;28;20036;-74
2022/04/06 02:12:14;;;;;;;31.10;16.70;;;;;;;4.43;nan;100151.81;5009631;28;20083;-74
2022/04/06 02:14:41;;;;;;;30.83;17.08;;;;;;;4.42;nan;100151.00;5008927;28;20041;-74
2022/04/06 02:17:07;;;;;;;30.25;16.23;;;;;;;4.42;nan;100161.44;5017814;28;20065;-74
2022/04/06 02:19:35;;;;;;;28.13;17.23;;;;;;;4.37;nan;100161.19;5008304;28;20034;-74
2022/04/06 02:22:01;;;;;;;43.00;25.73;;;;;;;4.34;nan;100166.81;5008354;28;20041;-74
2022/04/06 02:24:26;;;;;;;47.47;29.65;;;;;;;4.24;nan;100153.31;5009810;28;20037;-74
2022/04/06 02:26:52;;;;;;;56.70;35.72;;;;;;;4.23;nan;100155.06;5024765;28;20476;-74
2022/04/06 02:29:17;;;;;;;59.92;35.13;;;;;;;4.17;nan;100142.81;5008784;28;20040;-74
2022/04/06 02:31:43;;;;;;;60.72;36.55;;;;;;;4.15;nan;100144.00;5009582;28;20038;-73
2022/04/06 02:34:08;;;;;;;46.20;29.38;;;;;;;4.14;nan;100152.81;5008528;28;20027;-73
2022/04/06 02:36:34;;;;;;;37.65;22.60;;;;;;;4.13;nan;100148.59;5009556;28;20058;-74
2022/04/06 02:39:00;;;;;;;33.33;19.83;;;;;;;4.19;nan;100158.25;5014002;28;20057;-74
2022/04/06 02:41:26;;;;;;;32.55;19.00;;;;;;;4.23;nan;100160.28;5015234;28;20065;-73
2022/04/06 02:43:52;;;;;;;33.13;18.38;;;;;;;4.02;nan;100129.88;5016298;28;20411;-74
2022/04/06 02:46:17;;;;;;;24.45;14.82;;;;;;;4.14;nan;100156.25;5016312;28;20133;-74
2022/04/06 02:48:43;;;;;;;22.33;14.52;;;;;;;4.14;nan;100144.97;5015852;28;20052;-74
2022/04/06 02:51:08;;;;;;;25.40;14.38;;;;;;;4.19;nan;100153.03;5012455;28;20033;-74
2022/04/06 02:53:33;;;;;;;22.83;14.00;;;;;;;4.13;nan;100141.56;5007735;28;20100;-75
2022/04/06 02:55:59;;;;;;;23.73;13.63;;;;;;;4.23;nan;100162.91;5009362;28;20037;-75
2022/04/06 02:58:24;;;;;;;19.42;12.43;;;;;;;4.28;nan;100167.53;5012404;28;20111;-75
2022/04/06 03:00:50;;;;;;;25.23;13.32;;;;;;;4.28;nan;100158.94;5012758;28;20040;-75
2022/04/06 03:03:15;;;;;;;26.52;13.73;;;;;;;4.23;nan;100160.28;5013015;28;20040;-74
2022/04/06 03:05:41;;;;;;;23.42;12.93;;;;;;;4.18;nan;100154.84;5011066;28;20066;-74
2022/04/06 03:08:07;;;;;;;21.52;12.88;;;;;;;4.26;nan;100159.94;5011392;28;20120;-75
2022/04/06 03:10:33;;;;;;;22.15;13.45;;;;;;;4.25;nan;100160.13;5012772;28;20113;-75
2022/04/06 03:12:58;;;;;;;21.08;13.52;;;;;;;4.22;nan;100145.66;5005361;28;20049;-75
2022/04/06 03:15:23;;;;;;;22.13;13.20;;;;;;;4.36;nan;100158.81;5012507;28;20125;-75
2022/04/06 03:17:49;;;;;;;23.50;12.20;;;;;;;4.36;nan;100157.00;5012270;28;20460;-75
2022/04/06 03:20:14;;;;;;;26.85;12.77;;;;;;;4.43;nan;100162.22;5012750;28;20033;-75
2022/04/06 03:22:40;;;;;;;21.42;12.75;;;;;;;4.35;nan;100147.53;5027624;28;20041;-75
2022/04/06 03:25:07;;;;;;;26.52;13.30;;;;;;;4.48;nan;100165.91;5024334;28;20455;-74
2022/04/06 03:27:33;;;;;;;20.90;12.80;;;;;;;4.23;nan;100123.00;5012409;28;20415;-75
2022/04/06 03:30:00;;;;;;;26.05;12.07;;;;;;;4.38;nan;100155.00;5010858;28;20041;-74
2022/04/06 03:32:25;;;;;;;24.00;12.63;;;;;;;4.35;nan;100150.16;5011979;28;20030;-73
2022/04/06 03:34:51;;;;;;;22.77;12.90;;;;;;;4.40;nan;100163.41;5011379;28;20389;-74
2022/04/06 03:37:16;;;;;;;28.23;12.18;;;;;;;4.28;nan;100148.50;5019457;28;20491;-74
2022/04/06 03:39:41;;;;;;;23.80;12.02;;;;;;;4.34;nan;100164.19;5012156;28;20034;-74
2022/04/06 03:42:07;;;;;;;20.80;11.60;;;;;;;4.36;nan;100164.00;5007787;28;20037;-75
2022/04/06 03:44:32;;;;;;;22.52;11.75;;;;;;;4.38;nan;100169.81;5011270;28;20034;-74
2022/04/06 03:46:58;;;;;;;25.35;13.90;;;;;;;4.38;nan;100170.66;5009981;28;20034;-73
2022/04/06 03:49:23;;;;;;;22.33;13.52;;;;;;;4.39;nan;100172.25;5009454;28;20045;-74
2022/04/06 03:51:48;;;;;;;22.85;12.23;;;;;;;4.30;nan;100164.75;5010992;28;20530;-75
2022/04/06 03:54:14;;;;;;;22.23;12.45;;;;;;;4.28;nan;100157.13;5012264;28;20030;-73
2022/04/06 03:56:40;;;;;;;23.40;12.27;;;;;;;4.34;nan;100166.81;5011478;28;20026;-74
2022/04/06 03:59:06;;;;;;;22.33;12.82;;;;;;;4.36;nan;100169.22;5012378;28;20034;-74
2022/04/06 04:01:31;;;;;;;27.13;12.50;;;;;;;4.31;nan;100158.53;5011839;28;20045;-71
2022/04/06 04:03:57;;;;;;;19.50;11.55;;;;;;;4.40;nan;100179.06;5011271;28;22807;-73
2022/04/06 04:06:22;;;;;;;22.80;12.07;;;;;;;4.42;nan;100182.28;5009602;28;20061;-74
2022/04/06 04:08:48;;;;;;;22.38;11.63;;;;;;;4.28;nan;100162.34;5011029;28;20105;-75
2022/04/06 04:11:13;;;;;;;28.92;11.73;;;;;;;4.22;nan;100163.09;5011406;28;20601;-74
2022/04/06 04:13:39;;;;;;;24.80;11.15;;;;;;;4.06;nan;100140.72;5008717;28;20084;-73
2022/04/06 04:16:05;;;;;;;27.13;12.25;;;;;;;4.26;nan;100172.97;5025823;28;20034;-72
2022/04/06 04:18:30;;;;;;;28.40;11.75;;;;;;;4.05;nan;100145.13;5011289;28;20137;-75
2022/04/06 04:21:32;;;;;;;28.55;12.38;;;;;;;4.18;nan;100174.88;5007283;28;20482;-73
2022/04/06 04:23:42;;;;;;;27.90;11.85;;;;;;;3.95;nan;100160.28;5007756;28;20069;-71
2022/04/06 04:26:07;;;;;;;22.88;12.80;;;;;;;3.80;nan;100141.28;5010400;28;20593;-71
2022/04/06 04:28:32;;;;;;;23.80;12.70;;;;;;;3.62;nan;100126.94;5010776;28;20038;-71
2022/04/06 04:30:58;;;;;;;26.05;12.63;;;;;;;3.79;nan;100160.53;5010879;28;20403;-72
2022/04/06 04:33:23;;;;;;;27.27;12.20;;;;;;;3.71;nan;100158.03;5011606;28;20049;-72
2022/04/06 04:35:49;;;;;;;27.90;11.90;;;;;;;3.72;nan;100162.28;5011021;28;20403;-72
2022/04/06 04:38:14;;;;;;;27.63;11.68;;;;;;;3.63;nan;100145.94;5011932;28;20041;-73
2022/04/06 04:40:40;;;;;;;24.33;11.10;;;;;;;3.66;nan;100152.59;5010881;28;20034;-73
2022/04/06 04:43:05;;;;;;;19.90;10.68;;;;;;;3.65;nan;100148.38;5007861;28;20563;-74
2022/04/06 04:45:31;;;;;;;18.83;10.88;;;;;;;3.74;nan;100163.69;5011219;28;20455;-72
2022/04/06 04:47:57;;;;;;;18.77;10.27;;;;;;;3.71;nan;100171.06;5011415;28;20042;-74
2022/04/06 04:50:23;;;;;;;19.25;9.95;;;;;;;3.69;nan;100166.06;5026556;28;20480;-73
2022/04/06 04:52:48;;;;;;;18.33;10.45;;;;;;;3.77;nan;100180.75;5011520;28;20029;-73
2022/04/06 04:55:14;;;;;;;22.58;9.98;;;;;;;3.75;nan;100180.13;5011476;28;20025;-72
2022/04/06 04:57:39;;;;;;;19.92;9.98;;;;;;;3.78;nan;100180.56;5011217;28;20434;-71
2022/04/06 05:00:08;;;;;;;22.05;10.00;;;;;;;3.77;nan;100170.31;5011421;28;20511;-71
2022/04/06 05:02:34;;;;;;;30.50;10.85;;;;;;;3.88;nan;100182.03;5016931;28;20573;-70
2022/04/06 05:04:59;;;;;;;18.73;9.50;;;;;;;3.92;nan;100183.28;5001661;28;20092;-70
2022/04/06 05:07:25;;;;;;;22.40;11.18;;;;;;;4.05;nan;100210.28;5009086;28;20137;-69
2022/04/06 05:09:51;;;;;;;23.33;10.32;;;;;;;4.11;nan;100210.50;5025479;28;20114;-69
2022/04/06 05:12:17;;;;;;;16.65;9.77;;;;;;;4.17;nan;100207.16;5010868;28;20048;-71
2022/04/06 05:14:42;;;;;;;19.73;10.48;;;;;;;4.23;nan;100215.03;5008968;28;20042;-69
2022/04/06 05:17:08;;;;;;;20.60;10.50;;;;;;;4.26;nan;100213.84;5010638;28;20046;-69
2022/04/06 05:19:33;;;;;;;19.25;9.93;;;;;;;4.40;nan;100228.59;5010454;28;20488;-68
2022/04/06 05:21:59;;;;;;;18.33;10.20;;;;;;;4.43;nan;100227.41;5010361;28;20038;-70
2022/04/06 05:24:25;;;;;;;19.50;9.98;;;;;;;4.45;nan;100231.47;5008959;28;20048;-70
2022/04/06 05:26:51;;;;;;;17.83;9.80;;;;;;;4.26;nan;100203.41;5009588;28;20038;-70
2022/04/06 05:29:16;;;;;;;21.40;10.85;;;;;;;4.34;nan;100215.53;5025197;28;20529;-70
2022/04/06 05:31:42;;;;;;;20.52;9.98;;;;;;;4.57;nan;100247.38;5009699;28;20033;-69
2022/04/06 05:34:07;;;;;;;19.17;10.52;;;;;;;4.65;nan;100254.28;5009393;28;20037;-71
2022/04/06 05:36:32;;;;;;;24.10;10.98;;;;;;;4.73;nan;100250.72;5010627;28;20424;-72
2022/04/06 05:38:58;;;;;;;22.10;10.18;;;;;;;5.16;nan;100306.19;5008731;28;20372;-73
2022/04/06 05:41:24;;;;;;;18.42;10.35;;;;;;;4.82;nan;100239.16;5010084;28;20674;-71
2022/04/06 05:43:49;;;;;;;21.55;10.15;;;;;;;4.94;nan;100255.06;5007378;28;20388;-72
2022/04/06 05:46:15;;;;;;;19.73;9.68;;;;;;;5.05;nan;100254.53;5010469;28;20041;-72
2022/04/06 05:48:40;;;;;;;20.10;9.55;;;;;;;5.09;nan;100253.16;5009805;28;20033;-71
2022/04/06 05:51:06;;;;;;;16.83;9.85;;;;;;;5.15;nan;100247.16;5011761;28;20038;-71
2022/04/06 05:53:31;;;;;;;15.50;9.77;;;;;;;5.22;nan;100239.34;5014770;28;20034;-71
2022/04/06 05:55:57;;;;;;;20.13;9.93;;;;;;;5.36;nan;100242.84;5017107;28;20184;-72
2022/04/06 05:58:23;;;;;;;15.32;9.35;;;;;;;5.58;nan;100259.19;5017165;28;20069;-70
2022/04/06 06:00:48;;;;;;;21.52;10.38;;;;;;;5.60;nan;100242.31;5014142;28;20040;-72
2022/04/06 06:03:14;;;;;;;24.60;9.82;;;;;;;5.80;nan;100241.59;5016096;28;20029;-72
2022/04/06 06:05:39;;;;;;;19.65;9.57;;;;;;;5.93;nan;100247.63;5017378;28;20060;-72
2022/04/06 06:08:05;;;;;;;18.75;9.82;;;;;;;6.05;nan;100245.28;5012354;28;20441;-72
2022/04/06 06:10:31;;;;;;;22.02;10.10;;;;;;;6.16;nan;100236.88;5017268;28;20030;-72
2022/04/06 06:12:58;;;;;;;22.10;10.63;;;;;;;6.29;nan;100245.72;5001035;28;20061;-72
2022/04/06 06:15:24;;;;;;;22.42;10.73;;;;;;;6.49;nan;100243.94;5007898;28;20034;-73
2022/04/06 06:17:49;;;;;;;19.88;10.80;;;;;;;6.56;nan;100215.13;5004970;28;20491;-72
2022/04/06 06:20:14;;;;;;;20.17;9.80;;;;;;;6.69;nan;100204.66;5008483;28;20121;-73
2022/04/06 06:22:40;;;;;;;40.38;10.48;;;;;;;6.94;nan;100230.16;4999365;28;20080;-71
2022/04/06 06:25:06;;;;;;;20.92;9.48;;;;;;;7.19;nan;100235.56;5004140;28;20046;-69
2022/04/06 06:27:42;;;;;;;21.15;9.85;;;;;;;7.39;nan;100227.63;5018817;28;20443;-70
2022/04/06 06:30:11;;;;;;;25.42;9.75;;;;;;;7.58;nan;100233.78;5003199;28;20034;-69
2022/04/06 06:32:36;;;;;;;16.67;10.43;;;;;;;7.69;nan;100232.34;5010087;28;20037;-73
2022/04/06 06:35:02;;;;;;;26.90;10.85;;;;;;;7.80;nan;100242.13;5011977;28;20062;-72
2022/04/06 06:37:27;;;;;;;23.55;10.95;;;;;;;7.87;nan;100235.03;5009004;28;20080;-70
2022/04/06 06:39:54;;;;;;;22.98;10.25;;;;;;;8.03;nan;100231.13;5012346;28;20795;-71
2022/04/06 06:42:20;;;;;;;22.10;10.70;;;;;;;7.98;nan;100210.78;5012770;28;20034;-71
2022/04/06 06:44:45;;;;;;;32.42;11.38;;;;;;;8.15;nan;100210.25;5014994;28;20121;-71
2022/04/06 06:47:11;;;;;;;16.92;9.57;;;;;;;8.46;nan;100248.78;5019338;28;20475;-71
2022/04/06 06:49:37;;;;;;;14.77;7.30;;;;;;;8.83;nan;100248.84;5012254;28;20471;-71
2022/04/06 06:52:03;;;;;;;13.10;7.40;;;;;;;8.92;nan;100250.19;5011330;28;20030;-72
2022/04/06 06:54:29;;;;;;;15.60;7.05;;;;;;;9.02;nan;100247.84;5012276;28;20026;-71
2022/04/06 06:56:54;;;;;;;13.57;7.60;;;;;;;9.55;nan;100315.63;5012474;28;20076;-71
2022/04/06 06:59:20;;;;;;;13.73;7.25;;;;;;;9.30;nan;100267.56;5013158;28;20036;-71
2022/04/06 07:01:45;;;;;;;13.65;6.55;;;;;;;9.37;nan;100252.53;5027638;28;20034;-72
2022/04/06 07:04:11;;;;;;;14.73;6.10;;;;;;;9.48;nan;100251.81;5027602;28;20458;-72
2022/04/06 07:06:36;;;;;;;14.13;6.22;;;;;;;9.68;nan;100261.25;5012576;28;20030;-72
2022/04/06 07:09:01;;;;;;;12.40;7.15;;;;;;;9.68;nan;100243.66;5008373;28;20038;-72
2022/04/06 07:11:27;;;;;;;13.55;7.15;;;;;;;9.83;nan;100245.09;5012026;28;20030;-72
2022/04/06 07:13:52;;;;;;;18.30;6.40;;;;;;;10.02;nan;100260.56;5012809;28;20045;-71
2022/04/06 07:16:19;;;;;;;12.23;6.70;;;;;;;10.11;nan;100249.75;5007525;28;20045;-70
2022/04/06 07:18:44;;;;;;;12.65;7.07;;;;;;;10.08;nan;100223.88;5007920;28;20141;-70
2022/04/06 07:21:10;;;;;;;10.60;6.22;;;;;;;10.37;nan;100259.91;5011718;28;20551;-70
2022/04/06 07:23:36;;;;;;;12.50;6.68;;;;;;;10.54;nan;100275.03;5012180;28;20033;-71
2022/04/06 07:26:02;;;;;;;12.68;5.97;;;;;;;10.67;nan;100272.16;5012504;28;20165;-71
2022/04/06 07:28:27;;;;;;;10.77;6.55;;;;;;;10.54;nan;100238.97;5010507;28;20034;-70
2022/04/06 07:30:53;;;;;;;8.93;6.18;;;;;;;10.79;nan;100269.53;5012474;28;20033;-69
2022/04/06 07:33:18;;;;;;;8.65;5.75;;;;;;;10.89;nan;100267.13;5012235;28;20046;-68
2022/04/06 07:35:44;;;;;;;8.95;6.10;;;;;;;10.94;nan;100275.16;5011515;28;20053;-69
2022/04/06 07:38:12;;;;;;;10.18;6.15;;;;;;;11.07;nan;100279.38;5009585;28;20034;-70
2022/04/06 07:40:37;;;;;;;12.20;6.95;;;;;;;11.13;nan;100275.00;5010782;28;20061;-70
2022/04/06 07:43:03;;;;;;;12.32;6.15;;;;;;;11.18;nan;100270.66;5011482;28;20491;-70
2022/04/06 07:45:28;;;;;;;10.57;6.60;;;;;;;11.38;nan;100277.38;5010087;28;20050;-69
2022/04/06 07:47:54;;;;;;;10.60;6.13;;;;;;;11.44;nan;100277.22;5004303;28;20032;-69
2022/04/06 07:50:21;;;;;;;10.35;6.28;;;;;;;11.61;nan;100274.69;5011578;28;20100;-70
2022/04/06 07:52:48;;;;;;;13.23;7.07;;;;;;;11.60;nan;100261.72;5012240;28;20164;-70
2022/04/06 07:55:14;;;;;;;10.07;5.57;;;;;;;11.77;nan;100273.13;4995913;28;20055;-69
2022/04/06 07:57:40;;;;;;;11.07;6.50;;;;;;;11.91;nan;100271.84;5007808;28;20033;-71
2022/04/06 08:00:09;;;;;;;11.38;6.13;;;;;;;12.09;nan;100284.03;5012607;28;20722;-71
2022/04/06 08:02:36;;;;;;;10.20;6.57;;;;;;;12.19;nan;100279.97;5010942;28;20472;-72
2022/04/06 08:05:04;;;;;;;11.27;6.15;;;;;;;12.13;nan;100261.38;5011376;28;20101;-73
2022/04/06 08:07:30;;;;;;;10.68;5.78;;;;;;;12.39;nan;100280.28;5027138;28;20503;-71
2022/04/06 08:09:56;;;;;;;11.23;5.85;;;;;;;12.43;nan;100272.72;5008241;28;20602;-71
2022/04/06 08:12:22;;;;;;;10.48;6.20;;;;;;;12.56;nan;100272.38;5016617;28;20042;-73
2022/04/06 08:14:48;;;;;;;9.90;6.18;;;;;;;12.59;nan;100255.25;5025491;28;20053;-73
2022/04/06 08:17:14;;;;;;;8.10;5.63;;;;;;;12.84;nan;100268.03;5011306;28;20114;-73
2022/04/06 08:19:40;;;;;;;10.52;6.40;;;;;;;12.94;nan;100274.25;5011844;28;20641;-71
2022/04/06 08:22:05;;;;;;;10.48;6.10;;;;;;;12.94;nan;100253.09;5010003;28;20042;-70
2022/04/06 08:24:31;;;;;;;11.43;5.90;;;;;;;13.20;nan;100279.88;5011603;28;20026;-71
2022/04/06 08:26:56;;;;;;;10.60;6.43;;;;;;;13.35;nan;100284.59;5011460;28;20030;-71
2022/04/06 08:29:22;;;;;;;12.32;7.03;;;;;;;13.29;nan;100262.59;5010961;28;20038;-71
2022/04/06 08:31:48;;;;;;;9.98;6.22;;;;;;;13.60;nan;100286.75;5010578;28;20146;-71
2022/04/06 08:34:14;;;;;;;15.30;6.63;;;;;;;13.74;nan;100289.78;5004406;28;20068;-71
2022/04/06 08:36:41;;;;;;;9.15;5.85;;;;;;;13.75;nan;100271.03;5011228;28;20068;-70
2022/04/06 08:39:06;;;;;;;10.05;6.03;;;;;;;13.93;nan;100284.97;5009408;28;20037;-71
2022/04/06 08:41:32;;;;;;;11.85;6.10;;;;;;;14.05;nan;100285.59;5009369;28;20069;-71
2022/04/06 08:43:57;;;;;;;14.25;5.88;;;;;;;14.11;nan;100266.09;5007478;28;20033;-70
2022/04/06 08:46:23;;;;;;;11.45;6.30;;;;;;;14.35;nan;100286.94;5010638;28;20064;-70
2022/04/06 08:48:53;;;;;;;9.05;5.78;;;;;;;14.49;nan;100287.34;5026162;28;20034;-70
2022/04/06 08:51:20;;;;;;;9.07;5.80;;;;;;;14.61;nan;100283.47;5011106;28;20026;-72
2022/04/06 08:53:47;;;;;;;8.18;5.88;;;;;;;14.65;nan;100276.63;5010556;28;20450;-74
2022/04/06 08:56:14;;;;;;;9.38;5.78;;;;;;;14.68;nan;100265.50;5010003;28;20080;-70
2022/04/06 08:58:40;;;;;;;14.13;6.68;;;;;;;14.89;nan;100277.03;5010076;28;20368;-71
2022/04/06 09:01:06;;;;;;;8.73;5.28;;;;;;;15.02;nan;100273.13;5010120;28;20030;-71
2022/04/06 09:03:31;;;;;;;10.05;5.43;;;;;;;15.03;nan;100265.94;5010829;28;20040;-72
2022/04/06 09:06:09;;;;;;;11.05;5.40;;;;;;;15.07;nan;100256.44;5010872;28;20137;-70
2022/04/06 09:08:40;;;;;;;10.07;5.22;;;;;;;15.23;nan;100262.63;5010487;28;20041;-71
2022/04/06 09:11:20;;;;;;;10.25;5.80;;;;;;;15.34;nan;100260.78;5005760;28;20048;-70
2022/04/06 09:13:48;;;;;;;9.32;4.80;;;;;;;15.37;nan;100258.44;5008232;28;20111;-70
2022/04/06 09:16:17;;;;;;;13.63;4.78;;;;;;;15.58;nan;100258.47;5009849;28;20487;-70
2022/04/06 09:18:45;;;;;;;5.80;3.92;;;;;;;15.67;nan;100262.22;5008719;28;20037;-70
2022/04/06 09:21:19;;;;;;;7.07;4.53;;;;;;;15.64;nan;100244.97;5024430;28;20052;-71
2022/04/06 09:23:49;;;;;;;8.52;4.75;;;;;;;15.79;nan;100254.84;5009114;28;20065;-71
2022/04/06 09:26:23;;;;;;;6.97;4.05;;;;;;;15.86;nan;100252.72;5008746;28;20029;-69
2022/04/06 09:28:50;;;;;;;8.48;4.80;;;;;;;15.92;nan;100241.06;5003802;28;20045;-74
2022/04/06 09:31:19;;;;;;;6.65;4.43;;;;;;;16.02;nan;100248.25;5004415;28;20037;-75
2022/04/06 09:33:58;;;;;;;;;;;;;;;16.13;nan;100252.47;5008360;28;20483;-75
2022/04/06 09:36:26;;;;;;;9.13;3.92;;;;;;;16.16;nan;100246.66;5000140;28;19921;-75
2022/04/06 09:38:52;;;;;;;6.78;3.83;;;;;;;16.28;nan;100240.25;5003461;28;20463;-75
2022/04/06 09:41:19;;;;;;;7.88;4.13;;;;;;;16.32;nan;100236.81;5009680;28;20040;-74
2022/04/06 09:43:47;;;;;;;5.43;3.78;;;;;;;16.43;nan;100236.81;5017420;28;20031;-75
2022/04/06 09:49:18;;;;;;;7.33;3.97;;;;;;;16.56;nan;100233.59;5007830;28;20432;-75
2022/04/06 09:51:45;;;;;;;5.32;3.60;;;;;;;16.70;nan;100233.84;5012673;28;20029;-75
2022/04/06 09:54:12;;;;;;;6.30;4.20;;;;;;;16.75;nan;100231.97;5020986;28;20064;-75
2022/04/06 09:56:39;;;;;;;7.53;3.97;;;;;;;16.76;nan;100217.63;5018084;28;20033;-75
2022/04/06 09:59:06;;;;;;;7.32;3.83;;;;;;;16.87;nan;100213.06;5032757;28;20484;-75
2022/04/06 10:01:38;;;;;;;5.25;3.47;;;;;;;17.01;nan;100223.94;5011951;28;20037;-75
2022/04/06 10:04:06;;;;;;;6.20;3.45;;;;;;;17.07;nan;100217.53;5009204;28;20380;-74
2022/04/06 10:06:36;;;;;;;6.95;3.55;;;;;;;17.14;nan;100211.91;5016555;28;20561;-75
2022/04/06 10:09:05;;;;;;;4.70;3.30;;;;;;;17.18;nan;100210.31;5037186;28;20144;-75
2022/04/06 10:11:30;;;;;;;6.18;3.75;;;;;;;17.26;nan;100217.69;5015941;28;20041;-74
2022/04/06 10:13:57;;;;;;;4.00;3.00;;;;;;;17.31;nan;100208.91;5031430;28;20042;-74
2022/04/06 10:16:26;;;;;;;6.22;3.55;;;;;;;17.26;nan;100195.63;5012902;28;20057;-75
2022/04/06 10:18:53;;;;;;;7.30;3.47;;;;;;;17.34;nan;100195.06;5016399;28;20049;-75
2022/04/06 10:21:22;;;;;;;3.97;2.97;;;;;;;17.41;nan;100195.56;5013348;28;20097;-74
2022/04/06 10:24:12;;;;;;;4.88;3.10;;;;;;;17.51;nan;100192.81;5012383;28;20033;-74
2022/04/06 10:26:46;;;;;;;5.57;3.10;;;;;;;17.57;nan;100188.25;5029422;28;20038;-76
2022/04/06 10:29:12;;;;;;;5.55;3.13;;;;;;;17.62;nan;100183.72;5008880;28;20041;-75
2022/04/06 10:31:38;;;;;;;5.38;3.03;;;;;;;17.68;nan;100179.13;5014546;28;20038;-73
2022/04/06 10:34:36;;;;;;;4.88;2.90;;;;;;;17.75;nan;100181.50;5009158;28;20029;-74
2022/04/06 10:37:11;;;;;;;5.40;3.05;;;;;;;17.79;nan;100179.84;5013942;28;20492;-74
2022/04/06 10:39:53;;;;;;;6.22;2.53;;;;;;;17.89;nan;100166.50;5015893;28;20546;-75
2022/04/06 10:42:33;;;;;;;5.95;2.60;;;;;;;17.89;nan;100147.06;5024018;28;20473;-75
2022/04/06 10:44:59;;;;;;;4.00;2.60;;;;;;;17.87;nan;100128.69;5024036;28;20400;-75
2022/04/06 10:47:25;;;;;;;4.55;3.05;;;;;;;18.09;nan;100162.84;5019657;28;20491;-74
2022/04/06 10:50:09;;;;;;;4.82;2.47;;;;;;;18.15;nan;100158.25;5017083;28;20052;-74
2022/04/06 10:52:35;;;;;;;4.72;2.75;;;;;;;18.17;nan;100156.09;5030390;28;20029;-75
2022/04/06 10:55:14;;;;;;;4.82;2.58;;;;;;;18.27;nan;100156.03;5013969;28;20047;-73
2022/04/06 10:57:56;;;;;;;4.05;2.90;;;;;;;18.36;nan;100142.84;5015672;28;20062;-73
2022/04/06 11:00:22;;;;;;;4.20;2.95;;;;;;;18.44;nan;100147.59;5014753;28;20037;-75
2022/04/06 11:02:51;;;;;;;4.85;2.95;;;;;;;18.40;nan;100125.22;5015838;28;20037;-76
2022/04/06 11:05:45;;;;;;;4.43;2.67;;;;;;;18.58;nan;100137.84;5028874;28;20065;-73
2022/04/06 11:11:46;;;;;;;6.65;3.08;;;;;;;18.63;nan;100142.31;5015758;28;20026;-74
2022/04/06 11:14:33;;;;;;;6.13;2.83;;;;;;;18.59;nan;100127.94;5015013;28;20034;-74
2022/04/06 11:16:59;;;;;;;6.50;2.88;;;;;;;18.61;nan;100120.47;5012668;28;20032;-73
2022/04/06 11:19:25;;;;;;;7.85;2.90;;;;;;;18.74;nan;100125.09;5011633;28;20033;-74
2022/04/06 11:21:53;;;;;;;6.63;2.78;;;;;;;18.91;nan;100124.63;5011752;28;20468;-75
2022/04/06 11:24:21;;;;;;;7.35;2.80;;;;;;;19.04;nan;100120.47;5012154;28;20045;-75
2022/04/06 11:26:47;;;;;;;6.28;2.80;;;;;;;19.15;nan;100118.44;5025153;28;20646;-76
2022/04/06 11:29:12;;;;;;;4.22;2.72;;;;;;;19.06;nan;100092.41;5015262;28;20072;-74
2022/04/06 11:32:04;;;;;;;5.00;2.88;;;;;;;19.19;nan;100101.56;5005652;28;20038;-74
2022/04/06 11:34:31;;;;;;;5.78;2.67;;;;;;;19.31;nan;100104.59;5019595;28;20100;-71
2022/04/06 11:36:58;;;;;;;5.55;2.50;;;;;;;19.33;nan;100096.28;5007347;28;20558;-71
2022/04/06 11:39:24;;;;;;;4.30;2.47;;;;;;;19.31;nan;100083.22;5013132;28;20034;-71
2022/04/06 11:41:50;;;;;;;3.42;2.20;;;;;;;19.40;nan;100085.25;5011794;28;20088;-72
2022/04/06 11:44:20;;;;;;;4.30;2.50;;;;;;;19.46;nan;100081.41;5011811;28;20033;-73